Авиационная погода в Угольном

Регион: 
Погода METAR: 
UHMA 262100Z 01005MPS CAVOK M30/M35 Q1026 R01/////// NOSIG RMK TDZ R01/01005G06MPS END R01/02007G10MPS QFE766/1021
Время наблюдения
2021-02-26T21:00:00Z
Температура C
-30.0
Точка росы
-35.0
Направление ветра
10
Скорость ветра (узлы)
10
Метео видимость
6.21
Явления погоды
Условия полета
VFR
Аэропорт подробнее: